Change the Weather History Date:

Saturday, May 12, 2012

  Actual Average Record
Temperature  
Mean Temperature 62 °F -  
Max Temperature 68 °F 71 °F 90 °F (1956)
Min Temperature 53 °F 49 °F 33 °F (1960)
Degree Days  
Heating Degree Days 4    
Growing Degree Days 12 (Base 50)    
Moisture  
Dew Point 50 °F    
Average Humidity 66    
Maximum Humidity 82    
Minimum Humidity 55    
Precipitation  
Precipitation 0.00 in - - ()
Sea Level Pressure  
Sea Level Pressure 30.24 in    
Wind  
Wind Speed 9 mph (ENE)    
Max Wind Speed 16 mph    
Max Gust Speed 21 mph    
Visibility 10 miles    
Events      
Averages and records for this station are not official NWS values.
T = Trace of Precipitation, MM = Missing Value Source: NWS Daily Summary

Daily Weather History Graph

Daily Weather History Graph

Search for Another Location

Airport or City:

Trip Planner

Search our weather history database for the weather conditions in past years. The results will help you decide how hot, cold, wet, or windy it might be!

Date:

Astronomy

May. 12, 2012 Rise Set
Actual Time 5:43 AM CDT 8:12 PM CDT
Civil Twilight 5:12 AM CDT 8:43 PM CDT
Nautical Twilight 4:33 AM CDT 9:23 PM CDT
Astronomical Twilight 3:49 AM CDT 10:07 PM CDT
Moon 1:24 AM CDT (5/12) 12:24 PM CDT (5/12)
Length of Visible Light 15h 31m
Length of Day
14h 28m
Waning Gibbous, 52% of the Moon is Illuminated
May 12
Waning Gibbous
May 12
Last Quarter
May 20
New
May 28
First Quarter
Jun 4
Full

Hourly Weather History & Observations

Time (CDT) Temp. Dew Point Humidity Pressure Visibility Wind Dir Wind Speed Gust Speed Precip Events Conditions
12:15 AM 64.4 °F 53.6 °F 68% 30.14 in 10.0 mi North 12.7 mph - N/A   Clear
12:35 AM 64.4 °F 53.6 °F 68% 30.14 in 10.0 mi North 10.4 mph - N/A   Clear
12:55 AM 62.6 °F 53.6 °F 72% 30.16 in 10.0 mi NNW 6.9 mph - N/A   Clear
1:15 AM 60.8 °F 53.6 °F 77% 30.16 in 10.0 mi NNW 4.6 mph - N/A   Clear
1:35 AM 60.8 °F 51.8 °F 72% 30.16 in 10.0 mi North 5.8 mph - N/A   Clear
1:55 AM 59.0 °F 51.8 °F 77% 30.17 in 10.0 mi North 5.8 mph - N/A   Clear
2:15 AM 57.2 °F 51.8 °F 82% 30.17 in 10.0 mi North 6.9 mph - N/A   Mostly Cloudy
2:35 AM 57.2 °F 51.8 °F 82% 30.18 in 10.0 mi North 8.1 mph - N/A   Overcast
2:55 AM 60.8 °F 51.8 °F 72% 30.17 in 10.0 mi North 11.5 mph - N/A   Mostly Cloudy
3:15 AM 59.0 °F 50.0 °F 72% 30.17 in 10.0 mi North 11.5 mph - N/A   Partly Cloudy
3:35 AM 57.2 °F 50.0 °F 77% 30.18 in 10.0 mi North 10.4 mph - N/A   Clear
3:55 AM 57.2 °F 48.2 °F 72% 30.19 in 10.0 mi North 10.4 mph - N/A   Clear
4:15 AM 57.2 °F 48.2 °F 72% 30.19 in 10.0 mi North 9.2 mph - N/A   Clear
4:35 AM 55.4 °F 48.2 °F 77% 30.20 in 10.0 mi North 9.2 mph - N/A   Clear
4:55 AM 55.4 °F 46.4 °F 72% 30.20 in 10.0 mi North 6.9 mph - N/A   Clear
5:15 AM 55.4 °F 46.4 °F 72% 30.21 in 10.0 mi North 6.9 mph - N/A   Clear
5:35 AM 55.4 °F 46.4 °F 72% 30.22 in 10.0 mi North 8.1 mph - N/A   Clear
5:55 AM 55.4 °F 46.4 °F 72% 30.23 in 10.0 mi NNE 8.1 mph - N/A   Mostly Cloudy
6:15 AM 55.4 °F 46.4 °F 72% 30.24 in 10.0 mi North 10.4 mph - N/A   Overcast
6:35 AM 57.2 °F 44.6 °F 63% 30.25 in 10.0 mi NNE 11.5 mph - N/A   Overcast
6:55 AM 57.2 °F 44.6 °F 63% 30.25 in 10.0 mi NNE 11.5 mph - N/A   Mostly Cloudy
7:15 AM 57.2 °F 44.6 °F 63% 30.27 in 10.0 mi NNE 11.5 mph - N/A   Partly Cloudy
7:35 AM 57.2 °F 44.6 °F 63% 30.27 in 10.0 mi NNE 12.7 mph 17.3 mph N/A   Partly Cloudy
7:55 AM 57.2 °F 44.6 °F 63% 30.27 in 10.0 mi NNE 15.0 mph - N/A   Partly Cloudy
8:35 AM 59.0 °F 44.6 °F 59% 30.28 in 10.0 mi NNE 15.0 mph - N/A   Partly Cloudy
8:55 AM 60.8 °F 44.6 °F 55% 30.28 in 10.0 mi NE 16.1 mph - N/A   Clear
9:15 AM 62.6 °F 46.4 °F 55% 30.28 in 10.0 mi NE 13.8 mph 20.7 mph N/A   Clear
9:35 AM 62.6 °F 46.4 °F 55% 30.27 in 10.0 mi NE 16.1 mph - N/A   Clear
9:55 AM 62.6 °F 46.4 °F 55% 30.27 in 10.0 mi NE 15.0 mph 20.7 mph N/A   Clear
10:55 AM 64.4 °F 48.2 °F 56% 30.28 in 10.0 mi NE 12.7 mph - N/A   Clear
11:15 AM 64.4 °F 48.2 °F 56% 30.28 in 10.0 mi NNE 10.4 mph - N/A   Clear
11:35 AM 64.4 °F 50.0 °F 59% 30.28 in 10.0 mi ENE 12.7 mph - N/A   Clear
11:55 AM 64.4 °F 48.2 °F 56% 30.27 in 10.0 mi NE 12.7 mph - N/A   Clear
12:15 PM 64.4 °F 50.0 °F 59% 30.27 in 10.0 mi NE 9.2 mph - N/A   Partly Cloudy
12:35 PM 64.4 °F 50.0 °F 59% 30.27 in 10.0 mi ENE 8.1 mph - N/A   Clear
12:55 PM 66.2 °F 50.0 °F 56% 30.27 in 10.0 mi NE 8.1 mph - N/A   Clear
1:15 PM 66.2 °F 51.8 °F 60% 30.26 in 10.0 mi ENE 8.1 mph - N/A   Clear
1:35 PM 68.0 °F 51.8 °F 56% 30.26 in 10.0 mi East 9.2 mph - N/A   Partly Cloudy
1:55 PM 66.2 °F 51.8 °F 60% 30.26 in 10.0 mi ENE 5.8 mph - N/A   Mostly Cloudy
2:15 PM 68.0 °F 51.8 °F 56% 30.26 in 10.0 mi ENE 6.9 mph - N/A   Overcast
2:35 PM 66.2 °F 51.8 °F 60% 30.26 in 10.0 mi NE 4.6 mph - N/A   Overcast
2:55 PM 66.2 °F 51.8 °F 60% 30.26 in 10.0 mi ENE 9.2 mph - N/A   Overcast
3:15 PM 66.2 °F 53.6 °F 64% 30.25 in 10.0 mi East 10.4 mph - N/A   Overcast
3:35 PM 68.0 °F 53.6 °F 60% 30.24 in 10.0 mi East 11.5 mph - N/A   Scattered Clouds
3:55 PM 66.2 °F 51.8 °F 60% 30.24 in 10.0 mi East 6.9 mph - N/A   Clear
4:15 PM 66.2 °F 53.6 °F 64% 30.24 in 10.0 mi East 8.1 mph - N/A   Clear
4:35 PM 66.2 °F 51.8 °F 60% 30.24 in 10.0 mi ESE 9.2 mph - N/A   Clear
4:55 PM 66.2 °F 53.6 °F 64% 30.24 in 10.0 mi ESE 9.2 mph - N/A   Scattered Clouds
5:15 PM 66.2 °F 53.6 °F 64% 30.24 in 10.0 mi East 11.5 mph - N/A   Partly Cloudy
5:35 PM 66.2 °F 51.8 °F 60% 30.24 in 10.0 mi East 10.4 mph - N/A   Scattered Clouds
5:55 PM 64.4 °F 51.8 °F 64% 30.24 in 10.0 mi East 10.4 mph - N/A   Scattered Clouds
6:15 PM 64.4 °F 51.8 °F 64% 30.24 in 10.0 mi East 6.9 mph - N/A   Clear
6:35 PM 64.4 °F 51.8 °F 64% 30.23 in 10.0 mi East 8.1 mph - N/A   Clear
6:55 PM 64.4 °F 51.8 °F 64% 30.23 in 10.0 mi East 8.1 mph - N/A   Clear
7:15 PM 64.4 °F 51.8 °F 64% 30.24 in 10.0 mi East 8.1 mph - N/A   Partly Cloudy
7:35 PM 64.4 °F 51.8 °F 64% 30.24 in 10.0 mi East 8.1 mph - N/A   Partly Cloudy
7:55 PM 64.4 °F 51.8 °F 64% 30.24 in 10.0 mi East 6.9 mph - N/A   Partly Cloudy
8:15 PM 62.6 °F 51.8 °F 68% 30.24 in 10.0 mi East 6.9 mph - N/A   Partly Cloudy
8:35 PM 60.8 °F 51.8 °F 72% 30.25 in 10.0 mi East 5.8 mph - N/A   Clear
8:55 PM 60.8 °F 50.0 °F 68% 30.25 in 10.0 mi ESE 5.8 mph - N/A   Clear
9:15 PM 60.8 °F 50.0 °F 68% 30.26 in 10.0 mi SSE 5.8 mph - N/A   Clear
9:35 PM 57.2 °F 50.0 °F 77% 30.27 in 10.0 mi SE 8.1 mph - N/A   Clear
9:55 PM 57.2 °F 50.0 °F 77% 30.27 in 10.0 mi SSE 6.9 mph - N/A   Clear
10:15 PM 57.2 °F 50.0 °F 77% 30.28 in 10.0 mi SE 9.2 mph - N/A   Clear
10:35 PM 57.2 °F 50.0 °F 77% 30.28 in 10.0 mi SE 6.9 mph - N/A   Clear
10:55 PM 55.4 °F 48.2 °F 77% 30.28 in 10.0 mi SE 6.9 mph - N/A   Clear
11:15 PM 55.4 °F 48.2 °F 77% 30.28 in 9.0 mi SE 4.6 mph - N/A   Clear
11:35 PM 55.4 °F 48.2 °F 77% 30.28 in 10.0 mi SE 3.5 mph - N/A   Clear
11:55 PM 53.6 °F 48.2 °F 82% 30.29 in 10.0 mi South 3.5 mph - N/A   Clear